Time;durP1;ratioP1;P1;durP2;ratioP2;P2;SDS_P1;SDS_P2;PMS_P1;PMS_P2;Temp;Humidity;BMP_temperature;BMP_pressure;BME280_temperature;BME280_humidity;BME280_pressure;Samples;Min_cycle;Max_cycle;Signal;HPM_P1;HPM_P2
2022/08/12 00:44:18;;;;;;;;;;;17.40;99.90;;;;;;6185778;23;19987;-75
2022/08/12 00:46:58;;;;;;;;;;;17.40;99.90;;;;;;6186243;23;19927;-75
2022/08/12 00:49:25;;;;;;;;;;;17.30;99.90;;;;;;6186423;23;19916;-75
2022/08/12 00:52:10;;;;;;;;;;;17.40;99.90;;;;;;6160190;23;19916;-75
2022/08/12 00:54:40;;;;;;;;;;;17.40;99.90;;;;;;6186459;23;19951;-75
2022/08/12 00:57:08;;;;;;;;;;;17.30;99.90;;;;;;6186225;23;19918;-76
2022/08/12 00:59:34;;;;;;;;;;;17.30;99.90;;;;;;6186117;23;20317;-76
2022/08/12 01:02:00;;;;;;;;;;;17.30;99.90;;;;;;6186312;23;19995;-78
2022/08/12 01:12:41;;;;;;;;;;;17.30;99.90;;;;;;6186463;23;20409;-78
2022/08/12 01:15:08;;;;;;;;;;;17.30;99.90;;;;;;6161036;23;20452;-77
2022/08/12 01:17:33;;;;;;;;;;;17.30;99.90;;;;;;6161284;23;19993;-78
2022/08/12 01:20:02;;;;;;;;;;;17.30;99.90;;;;;;6161543;23;19916;-77
2022/08/12 01:22:34;;;;;;;;;;;17.40;99.90;;;;;;6185504;23;19922;-76
2022/08/12 01:25:18;;;;;;;;;;;17.40;99.90;;;;;;6186419;23;19916;-75
2022/08/12 01:27:45;;;;;;;;;;;17.50;99.90;;;;;;6185355;23;19912;-77
2022/08/12 01:30:11;;;;;;;;;;;17.60;99.90;;;;;;6161280;23;19923;-77
2022/08/12 01:32:38;;;;;;;;;;;17.60;99.90;;;;;;6161557;23;19918;-77
2022/08/12 01:35:12;;;;;;;;;;;17.60;99.90;;;;;;6185500;23;19915;-77
2022/08/12 01:37:45;;;;;;;;;;;17.70;99.90;;;;;;6186439;23;19912;-78
2022/08/12 01:40:12;;;;;;;;;;;17.60;99.90;;;;;;6186182;23;19923;-77
2022/08/12 01:42:42;;;;;;;;;;;17.70;99.90;;;;;;6186487;23;20430;-76
2022/08/12 01:45:08;;;;;;;;;;;17.70;99.90;;;;;;6185974;23;20342;-76
2022/08/12 01:47:48;;;;;;;;;;;17.70;99.90;;;;;;6185389;23;19927;-76
2022/08/12 01:50:25;;;;;;;;;;;17.80;99.90;;;;;;6186383;23;19912;-76
2022/08/12 01:52:53;;;;;;;;;;;17.70;99.90;;;;;;6185155;23;20347;-75
2022/08/12 01:55:22;;;;;;;;;;;17.80;99.90;;;;;;6185782;23;19916;-78
2022/08/12 01:58:00;;;;;;;;;;;17.80;99.90;;;;;;6185578;23;19912;-76
2022/08/12 02:00:34;;;;;;;;;;;17.80;99.90;;;;;;6185563;23;19974;-77
2022/08/12 02:03:11;;;;;;;;;;;17.70;99.90;;;;;;6186640;23;19916;-76
2022/08/12 02:11:30;;;;;;;;;;;17.30;99.90;;;;;;6185035;23;19983;-76
2022/08/12 02:14:14;;;;;;;;;;;17.20;99.90;;;;;;6186224;23;19946;-75
2022/08/12 02:16:40;;;;;;;;;;;17.20;99.90;;;;;;6161017;23;19912;-75
2022/08/12 02:19:15;;;;;;;;;;;17.30;99.90;;;;;;6160311;23;19960;-75
2022/08/12 02:21:45;;;;;;;;;;;17.30;99.90;;;;;;6160522;23;19919;-75
2022/08/12 02:24:17;;;;;;;;;;;17.40;99.90;;;;;;6159534;23;19974;-75
2022/08/12 02:26:44;;;;;;;;;;;17.50;99.90;;;;;;6162625;23;19925;-75
2022/08/12 02:29:11;;;;;;;;;;;17.60;99.90;;;;;;6187784;23;19916;-75
2022/08/12 02:31:37;;;;;;;;;;;17.60;99.90;;;;;;6162555;23;19923;-75
2022/08/12 02:34:03;;;;;;;;;;;17.60;99.90;;;;;;6163274;23;19915;-75
2022/08/12 02:36:31;;;;;;;;;;;17.60;99.90;;;;;;6162446;23;20490;-76
2022/08/12 02:38:58;;;;;;;;;;;17.60;99.90;;;;;;6187787;23;19951;-75
2022/08/12 02:41:24;;;;;;;;;;;17.60;99.90;;;;;;6187163;23;20222;-77
2022/08/12 02:43:52;;;;;;;;;;;17.60;99.90;;;;;;6188510;23;19923;-75
2022/08/12 02:46:22;;;;;;;;;;;17.60;99.90;;;;;;6186996;23;19958;-75
2022/08/12 02:48:59;;;;;;;;;;;17.60;99.90;;;;;;6162349;23;19912;-75
2022/08/12 02:51:30;;;;;;;;;;;17.60;99.90;;;;;;6186913;23;19951;-74
2022/08/12 02:53:57;;;;;;;;;;;17.60;99.90;;;;;;6161857;23;19916;-75
2022/08/12 02:56:26;;;;;;;;;;;17.60;99.90;;;;;;6161164;23;19912;-75
2022/08/12 02:58:53;;;;;;;;;;;17.50;99.90;;;;;;6186022;23;19922;-75
2022/08/12 03:01:20;;;;;;;;;;;17.60;99.90;;;;;;6162465;23;20223;-75
2022/08/12 03:03:48;;;;;;;;;;;17.60;99.90;;;;;;6187023;23;19912;-75
2022/08/12 03:06:16;;;;;;;;;;;17.60;99.90;;;;;;6187810;23;19974;-75
2022/08/12 03:08:44;;;;;;;;;;;17.50;99.90;;;;;;6187293;23;19912;-75
2022/08/12 03:11:10;;;;;;;;;;;17.60;99.90;;;;;;6162632;23;20408;-75
2022/08/12 03:13:37;;;;;;;;;;;17.60;99.90;;;;;;6187391;23;20000;-76
2022/08/12 03:16:03;;;;;;;;;;;17.60;99.90;;;;;;6187031;23;19923;-75
2022/08/12 03:18:30;;;;;;;;;;;17.60;99.90;;;;;;6161763;23;19916;-74
2022/08/12 03:20:56;;;;;;;;;;;17.60;99.90;;;;;;6187137;23;19918;-75
2022/08/12 03:23:22;;;;;;;;;;;17.60;99.90;;;;;;6186450;23;19912;-75
2022/08/12 03:25:49;;;;;;;;;;;17.60;99.90;;;;;;6186890;23;19958;-75
2022/08/12 03:28:49;;;;;;;;;;;17.60;99.90;;;;;;6186587;23;19911;-75
2022/08/12 03:31:05;;;;;;;;;;;17.60;99.90;;;;;;6186853;23;19962;-75
2022/08/12 03:33:33;;;;;;;;;;;17.70;99.90;;;;;;6187350;23;19919;-75
2022/08/12 03:36:00;;;;;;;;;;;17.60;99.90;;;;;;6187450;23;19912;-73
2022/08/12 03:38:28;;;;;;;;;;;17.60;99.90;;;;;;6186712;23;19911;-74
2022/08/12 04:00:35;;;;;;;;;;;16.70;99.90;;;;;;6186631;23;19978;-74
2022/08/12 04:03:01;;;;;;;;;;;16.60;99.90;;;;;;6187463;23;19926;-73
2022/08/12 04:05:27;;;;;;;;;;;16.60;99.90;;;;;;6186963;23;19955;-73
2022/08/12 04:07:54;;;;;;;;;;;16.40;99.90;;;;;;6187474;23;19912;-74
2022/08/12 04:10:20;;;;;;;;;;;16.20;99.90;;;;;;6162223;23;19966;-73
2022/08/12 04:15:51;;;;;;;;;;;16.00;99.90;;;;;;6168183;23;19997;-74
2022/08/12 04:18:16;;;;;;;;;;;15.90;99.90;;;;;;6187217;23;19916;-74
2022/08/12 04:20:42;;;;;;;;;;;15.80;99.90;;;;;;6186576;23;19962;-74
2022/08/12 04:23:09;;;;;;;;;;;15.90;99.90;;;;;;6162605;23;19920;-74
2022/08/12 04:25:35;;;;;;;;;;;15.90;99.90;;;;;;6161887;23;19915;-73
2022/08/12 04:28:00;;;;;;;;;;;16.20;99.90;;;;;;6162111;23;19927;-74
2022/08/12 04:30:26;;;;;;;;;;;16.30;99.90;;;;;;6137748;23;19993;-74
2022/08/12 04:32:52;;;;;;;;;;;16.40;99.90;;;;;;6187133;23;19912;-74
2022/08/12 04:35:19;;;;;;;;;;;16.40;99.90;;;;;;6162613;23;20268;-74
2022/08/12 04:37:45;;;;;;;;;;;16.40;99.90;;;;;;6186303;23;19916;-74
2022/08/12 04:40:12;;;;;;;;;;;16.20;99.90;;;;;;6162051;23;19923;-74
2022/08/12 04:42:37;;;;;;;;;;;15.90;99.90;;;;;;6186611;23;19943;-73
2022/08/12 04:45:03;;;;;;;;;;;15.80;99.90;;;;;;6162224;23;19915;-74
2022/08/12 04:47:29;;;;;;;;;;;15.80;99.90;;;;;;6186217;23;19920;-73
2022/08/12 04:49:55;;;;;;;;;;;16.00;99.90;;;;;;6186784;23;19911;-75
2022/08/12 04:52:20;;;;;;;;;;;16.10;99.90;;;;;;6137857;23;19916;-75
2022/08/12 04:54:46;;;;;;;;;;;16.20;99.90;;;;;;6161943;23;19912;-75
2022/08/12 04:57:12;;;;;;;;;;;16.40;99.90;;;;;;6162458;23;19966;-76
2022/08/12 04:59:38;;;;;;;;;;;16.60;99.90;;;;;;6137297;23;19912;-75
2022/08/12 05:02:04;;;;;;;;;;;16.80;99.90;;;;;;6186560;23;19912;-75
2022/08/12 05:04:30;;;;;;;;;;;16.80;99.90;;;;;;6186211;23;19973;-76
2022/08/12 05:06:55;;;;;;;;;;;17.00;99.90;;;;;;6187184;23;19923;-74
2022/08/12 05:09:21;;;;;;;;;;;17.00;99.90;;;;;;6186846;23;19915;-74
2022/08/12 05:11:48;;;;;;;;;;;17.10;99.90;;;;;;6186547;23;20435;-74
2022/08/12 05:14:14;;;;;;;;;;;17.20;99.90;;;;;;6161856;23;20296;-74
2022/08/12 05:16:40;;;;;;;;;;;17.20;99.90;;;;;;6162124;23;19916;-75
2022/08/12 05:19:06;;;;;;;;;;;17.20;99.90;;;;;;6186664;23;19919;-74
2022/08/12 05:21:32;;;;;;;;;;;17.30;99.90;;;;;;6186180;23;19916;-74
2022/08/12 05:23:58;;;;;;;;;;;17.30;99.90;;;;;;6161159;23;20479;-73
2022/08/12 05:26:24;;;;;;;;;;;17.40;99.90;;;;;;6185545;23;19968;-74
2022/08/12 05:28:52;;;;;;;;;;;17.50;99.90;;;;;;6160312;23;20305;-73
2022/08/12 05:31:18;;;;;;;;;;;17.50;99.90;;;;;;6185869;23;19950;-74
2022/08/12 05:33:44;;;;;;;;;;;17.50;99.90;;;;;;6185096;23;19912;-73
2022/08/12 05:36:12;;;;;;;;;;;17.60;99.90;;;;;;6161232;23;20367;-75
2022/08/12 05:38:57;;;;;;;;;;;17.70;99.90;;;;;;6161216;23;19958;-76
2022/08/12 05:41:26;;;;;;;;;;;17.80;99.90;;;;;;6161615;23;19911;-73
2022/08/12 05:43:53;;;;;;;;;;;17.90;99.90;;;;;;6186101;23;19999;-74
2022/08/12 05:46:19;;;;;;;;;;;17.90;99.90;;;;;;6185910;23;19977;-73
2022/08/12 05:48:46;;;;;;;;;;;17.90;99.90;;;;;;6161413;23;19918;-74
2022/08/12 05:51:11;;;;;;;;;;;17.90;99.90;;;;;;6161585;23;19916;-72
2022/08/12 05:53:38;;;;;;;;;;;18.00;99.90;;;;;;6185631;23;20007;-72
2022/08/12 05:56:04;;;;;;;;;;;18.10;99.90;;;;;;6186771;23;19912;-72
2022/08/12 05:58:29;;;;;;;;;;;18.10;99.90;;;;;;6186683;23;19943;-73
2022/08/12 06:00:56;;;;;;;;;;;18.20;99.90;;;;;;6186379;23;19939;-72
2022/08/12 06:03:21;;;;;;;;;;;18.20;99.90;;;;;;6188390;23;20328;-73
2022/08/12 06:05:48;;;;;;;;;;;18.20;99.90;;;;;;6188160;23;19915;-73
2022/08/12 06:08:15;;;;;;;;;;;18.20;99.90;;;;;;6188286;23;19970;-75
2022/08/12 06:10:40;;;;;;;;;;;18.30;99.90;;;;;;6187891;23;19916;-73
2022/08/12 06:13:06;;;;;;;;;;;18.30;99.90;;;;;;6163900;23;19919;-72
2022/08/12 06:15:34;;;;;;;;;;;18.40;99.90;;;;;;6162917;23;19912;-75
2022/08/12 06:18:04;;;;;;;;;;;18.60;99.90;;;;;;6188036;23;19919;-76
2022/08/12 06:20:30;;;;;;;;;;;18.60;99.90;;;;;;6188639;23;19912;-76
2022/08/12 06:22:55;;;;;;;;;;;18.70;99.90;;;;;;6138502;23;19923;-76
2022/08/12 06:25:21;;;;;;;;;;;18.80;99.90;;;;;;6163555;23;19974;-75
2022/08/12 06:27:47;;;;;;;;;;;18.80;99.90;;;;;;6187506;23;19912;-76
2022/08/12 06:30:19;;;;;;;;;;;18.90;99.90;;;;;;6138401;23;19990;-75
2022/08/12 06:32:46;;;;;;;;;;;19.00;99.90;;;;;;6187958;23;20248;-75
2022/08/12 06:35:12;;;;;;;;;;;19.00;99.90;;;;;;6163181;23;19912;-75
2022/08/12 06:37:44;;;;;;;;;;;19.00;99.90;;;;;;6138333;23;19911;-76
2022/08/12 06:40:13;;;;;;;;;;;19.10;99.90;;;;;;6163309;23;19915;-75
2022/08/12 06:42:50;;;;;;;;;;;19.20;99.90;;;;;;6187255;23;19912;-75
2022/08/12 06:45:18;;;;;;;;;;;19.30;99.90;;;;;;6163318;23;19916;-76
2022/08/12 06:47:45;;;;;;;;;;;19.50;99.90;;;;;;6133120;23;19955;-76
2022/08/12 06:50:14;;;;;;;;;;;19.50;99.90;;;;;;6182640;23;19916;-75
2022/08/12 06:52:41;;;;;;;;;;;19.60;99.90;;;;;;6158012;23;19918;-75
2022/08/12 06:55:06;;;;;;;;;;;19.80;99.90;;;;;;6133526;23;19966;-76
2022/08/12 06:57:32;;;;;;;;;;;19.90;99.90;;;;;;6158252;23;19912;-74
2022/08/12 06:59:57;;;;;;;;;;;20.00;99.90;;;;;;6157913;23;19916;-76
2022/08/12 07:02:24;;;;;;;;;;;20.10;99.90;;;;;;6182499;23;19912;-75
2022/08/12 07:04:51;;;;;;;;;;;20.20;99.90;;;;;;6157690;23;19924;-75
2022/08/12 07:07:17;;;;;;;;;;;20.30;99.90;;;;;;6182850;23;20258;-75
2022/08/12 07:09:43;;;;;;;;;;;20.40;99.90;;;;;;6182272;23;20002;-75
2022/08/12 07:12:18;;;;;;;;;;;20.40;99.90;;;;;;6182313;23;19916;-78
2022/08/12 07:14:50;;;;;;;;;;;20.50;99.90;;;;;;6182726;23;19987;-78
2022/08/12 07:17:15;;;;;;;;;;;20.50;99.90;;;;;;6183303;23;20324;-76
2022/08/12 07:19:42;;;;;;;;;;;20.60;99.90;;;;;;6182983;23;19981;-76
2022/08/12 07:22:12;;;;;;;;;;;20.70;99.90;;;;;;6158400;23;19919;-78
2022/08/12 07:24:38;;;;;;;;;;;20.80;99.90;;;;;;6158326;23;20348;-77
2022/08/12 07:27:04;;;;;;;;;;;20.90;99.90;;;;;;6157536;23;19916;-78
2022/08/12 07:29:29;;;;;;;;;;;20.90;99.90;;;;;;6134177;23;19924;-78
2022/08/12 07:31:58;;;;;;;;;;;21.10;99.90;;;;;;6158086;23;20031;-78
2022/08/12 07:34:25;;;;;;;;;;;21.20;99.90;;;;;;6134078;23;19919;-79
2022/08/12 07:36:50;;;;;;;;;;;21.30;99.90;;;;;;6182820;23;19971;-78
2022/08/12 07:39:16;;;;;;;;;;;21.50;99.90;;;;;;6133449;23;19912;-77
2022/08/12 07:41:42;;;;;;;;;;;21.50;99.90;;;;;;6183230;23;19923;-78
2022/08/12 07:44:08;;;;;;;;;;;21.60;99.90;;;;;;6157536;23;20269;-78
2022/08/12 07:46:39;;;;;;;;;;;21.70;99.90;;;;;;6182750;23;19974;-78
2022/08/12 07:49:06;;;;;;;;;;;21.70;99.90;;;;;;6157434;23;20322;-79
2022/08/12 07:51:32;;;;;;;;;;;21.90;99.90;;;;;;6153134;23;19920;-76
2022/08/12 07:53:58;;;;;;;;;;;22.00;99.90;;;;;;6155608;23;20332;-75
2022/08/12 07:56:25;;;;;;;;;;;22.10;99.90;;;;;;6156240;23;19912;-75
2022/08/12 07:58:50;;;;;;;;;;;22.30;99.90;;;;;;6181400;23;20270;-76
2022/08/12 08:01:20;;;;;;;;;;;22.30;99.90;;;;;;6181135;23;19915;-76
2022/08/12 08:06:31;;;;;;;;;;;22.40;99.90;;;;;;6180822;23;19916;-73
2022/08/12 08:08:58;;;;;;;;;;;22.50;99.90;;;;;;6180642;23;20329;-75
2022/08/12 08:14:09;;;;;;;;;;;22.60;99.90;;;;;;6180687;23;19919;-75
2022/08/12 08:16:36;;;;;;;;;;;22.80;99.90;;;;;;6180615;23;19923;-74
2022/08/12 08:19:02;;;;;;;;;;;22.90;99.90;;;;;;6180961;23;19916;-73
2022/08/12 08:21:31;;;;;;;;;;;23.10;99.90;;;;;;6180646;23;19916;-74
2022/08/12 08:24:16;;;;;;;;;;;23.10;99.90;;;;;;6155089;23;19935;-75
2022/08/12 08:26:42;;;;;;;;;;;23.20;99.90;;;;;;6155547;23;19924;-74
2022/08/12 08:29:08;;;;;;;;;;;23.30;99.90;;;;;;6179966;23;19927;-74
2022/08/12 08:31:34;;;;;;;;;;;23.40;99.90;;;;;;6180621;23;19912;-75
2022/08/12 08:34:01;;;;;;;;;;;23.50;99.90;;;;;;6179312;23;19916;-75
2022/08/12 08:36:27;;;;;;;;;;;23.60;99.90;;;;;;6179227;23;20392;-73
2022/08/12 08:38:54;;;;;;;;;;;23.70;99.90;;;;;;6180001;23;19963;-74
2022/08/12 08:44:04;;;;;;;;;;;24.00;99.90;;;;;;6179984;23;19916;-74
2022/08/12 08:46:33;;;;;;;;;;;24.10;99.90;;;;;;6155274;23;20478;-73
2022/08/12 08:49:00;;;;;;;;;;;24.30;99.90;;;;;;6156143;23;19916;-72
2022/08/12 08:51:25;;;;;;;;;;;24.40;99.90;;;;;;6180749;23;19927;-74
2022/08/12 08:53:52;;;;;;;;;;;24.40;99.90;;;;;;6130400;23;19908;-72
2022/08/12 08:56:18;;;;;;;;;;;24.60;99.90;;;;;;6155734;23;19924;-75
2022/08/12 08:58:44;;;;;;;;;;;24.70;99.90;;;;;;6180895;23;19916;-72
2022/08/12 09:01:10;;;;;;;;;;;24.80;99.90;;;;;;6154949;23;19990;-74
2022/08/12 09:03:36;;;;;;;;;;;25.10;99.90;;;;;;6180917;23;19918;-71
2022/08/12 09:06:01;;;;;;;;;;;25.10;99.90;;;;;;6179896;23;20006;-72
2022/08/12 09:08:28;;;;;;;;;;;25.20;99.90;;;;;;6155271;23;19916;-75
2022/08/12 09:10:57;;;;;;;;;;;25.30;99.90;;;;;;6180242;23;19919;-72
2022/08/12 09:13:31;;;;;;;;;;;25.50;99.90;;;;;;6180342;23;20209;-72
2022/08/12 09:15:57;;;;;;;;;;;25.70;99.90;;;;;;6155630;23;19990;-71
2022/08/12 09:18:23;;;;;;;;;;;25.70;99.90;;;;;;6180007;23;19939;-73
2022/08/12 09:20:49;;;;;;;;;;;25.80;99.90;;;;;;6180745;23;19912;-74
2022/08/12 09:23:16;;;;;;;;;;;25.90;99.90;;;;;;6179599;23;20297;-73
2022/08/12 09:25:43;;;;;;;;;;;26.20;99.90;;;;;;6156192;23;19939;-74
2022/08/12 09:28:09;;;;;;;;;;;26.30;99.90;;;;;;6179875;23;19912;-78
2022/08/12 09:30:39;;;;;;;;;;;26.50;99.90;;;;;;6180411;23;19919;-77
2022/08/12 09:33:05;;;;;;;;;;;26.70;99.90;;;;;;6180118;23;19999;-78
2022/08/12 09:35:32;;;;;;;;;;;26.70;99.90;;;;;;6154920;23;19947;-78
2022/08/12 09:38:00;;;;;;;;;;;27.10;99.90;;;;;;6130947;23;19947;-77
2022/08/12 09:40:25;;;;;;;;;;;27.40;99.90;;;;;;6179776;23;19912;-77
2022/08/12 09:45:35;;;;;;;;;;;27.70;83.10;;;;;;6161158;23;19916;-78
2022/08/12 09:48:05;;;;;;;;;;;28.20;68.50;;;;;;6184933;23;19916;-78
2022/08/12 09:50:34;;;;;;;;;;;28.40;69.20;;;;;;6185439;23;19953;-78
2022/08/12 09:53:03;;;;;;;;;;;28.80;71.50;;;;;;6185573;23;19991;-77
2022/08/12 09:55:29;;;;;;;;;;;28.60;48.70;;;;;;6186286;23;19916;-78
2022/08/12 09:57:54;;;;;;;;;;;29.30;32.10;;;;;;6185616;23;19918;-78
2022/08/12 10:00:24;;;;;;;;;;;29.70;50.30;;;;;;6136047;23;19942;-78
2022/08/12 10:02:59;;;;;;;;;;;29.70;13.90;;;;;;6161508;23;19918;-79
2022/08/12 10:05:25;;;;;;;;;;;29.70;9.90;;;;;;6160095;23;19992;-79
2022/08/12 10:07:50;;;;;;;;;;;29.60;1.00;;;;;;6185555;23;20236;-78
2022/08/12 10:10:16;;;;;;;;;;;29.20;1.00;;;;;;6160126;23;19923;-78
2022/08/12 10:15:27;;;;;;;;;;;29.60;1.00;;;;;;6164585;23;19916;-78
2022/08/12 10:17:53;;;;;;;;;;;30.00;1.00;;;;;;6185464;23;19918;-79
2022/08/12 10:20:18;;;;;;;;;;;30.40;1.00;;;;;;6160465;23;19911;-79
2022/08/12 10:23:05;;;;;;;;;;;30.10;1.00;;;;;;6136905;23;19947;-79
2022/08/12 10:31:00;;;;;;;;;;;30.30;1.00;;;;;;6184965;23;20292;-79
2022/08/12 10:33:29;;;;;;;;;;;29.70;1.00;;;;;;6136152;23;19912;-79
2022/08/12 10:35:56;;;;;;;;;;;30.10;1.00;;;;;;6137293;23;19911;-78
2022/08/12 10:38:23;;;;;;;;;;;30.20;99.90;;;;;;6136501;23;19916;-79
2022/08/12 10:43:42;;;;;;;;;;;29.70;99.90;;;;;;6184552;23;19916;-79
2022/08/12 10:46:17;;;;;;;;;;;29.90;1.00;;;;;;6184725;23;19922;-79
2022/08/12 10:48:47;;;;;;;;;;;30.30;1.00;;;;;;6187013;23;20002;-78
2022/08/12 10:51:17;;;;;;;;;;;30.30;99.90;;;;;;6135273;23;19916;-79
2022/08/12 10:53:46;;;;;;;;;;;30.70;99.90;;;;;;6162879;23;19991;-79
2022/08/12 10:56:16;;;;;;;;;;;31.00;1.00;;;;;;6162294;23;19920;-77
2022/08/12 10:58:42;;;;;;;;;;;30.80;99.90;;;;;;6188219;23;19974;-79
2022/08/12 11:01:09;;;;;;;;;;;30.30;99.90;;;;;;6162946;23;19915;-77
2022/08/12 11:03:38;;;;;;;;;;;30.20;99.90;;;;;;6163485;23;19912;-79
2022/08/12 11:06:10;;;;;;;;;;;30.40;99.90;;;;;;6186142;23;19969;-77
2022/08/12 11:08:39;;;;;;;;;;;30.60;99.90;;;;;;6162672;23;19915;-78
2022/08/12 11:11:07;;;;;;;;;;;30.70;1.00;;;;;;6186331;23;19919;-79
2022/08/12 11:13:36;;;;;;;;;;;30.70;99.90;;;;;;6161782;23;20038;-79
2022/08/12 11:16:01;;;;;;;;;;;31.20;99.90;;;;;;6162312;23;20217;-78
2022/08/12 11:18:27;;;;;;;;;;;31.60;99.90;;;;;;6186823;23;19923;-80
2022/08/12 11:20:53;;;;;;;;;;;30.80;99.90;;;;;;6162234;23;19916;-77
2022/08/12 11:23:19;;;;;;;;;;;30.60;99.90;;;;;;6162154;23;19963;-76
2022/08/12 11:25:45;;;;;;;;;;;30.90;99.90;;;;;;6161334;23;19915;-76
2022/08/12 11:28:11;;;;;;;;;;;30.60;99.90;;;;;;6136238;23;20283;-77
2022/08/12 11:30:37;;;;;;;;;;;30.40;99.90;;;;;;6161415;23;19912;-77
2022/08/12 11:33:03;;;;;;;;;;;31.20;1.00;;;;;;6162034;23;19912;-77
2022/08/12 11:35:28;;;;;;;;;;;30.90;99.90;;;;;;6185544;23;19912;-77
2022/08/12 11:37:54;;;;;;;;;;;30.60;99.90;;;;;;6187349;23;19947;-77
2022/08/12 11:40:20;;;;;;;;;;;30.40;99.90;;;;;;6186387;23;19920;-79
2022/08/12 11:42:45;;;;;;;;;;;31.10;99.90;;;;;;6160799;23;19919;-77
2022/08/12 11:45:11;;;;;;;;;;;31.20;99.90;;;;;;6135867;23;19916;-77
2022/08/12 11:47:37;;;;;;;;;;;31.60;99.90;;;;;;6136632;23;20014;-79
2022/08/12 11:50:03;;;;;;;;;;;31.70;99.90;;;;;;6161274;23;19912;-81
2022/08/12 11:52:29;;;;;;;;;;;32.00;99.90;;;;;;6185887;23;19919;-79
2022/08/12 11:54:54;;;;;;;;;;;31.40;99.90;;;;;;6185973;23;19912;-78
2022/08/12 11:57:20;;;;;;;;;;;31.70;99.90;;;;;;6134941;23;19973;-78
2022/08/12 11:59:46;;;;;;;;;;;31.90;99.90;;;;;;6185669;23;20281;-79
2022/08/12 12:02:12;;;;;;;;;;;31.90;99.90;;;;;;6183701;23;19912;-78
2022/08/12 12:04:38;;;;;;;;;;;32.20;99.90;;;;;;6185897;23;19918;-77
2022/08/12 12:07:04;;;;;;;;;;;31.30;99.90;;;;;;6136017;23;20427;-78
2022/08/12 12:09:29;;;;;;;;;;;31.40;99.90;;;;;;6185010;23;19915;-80
2022/08/12 12:11:56;;;;;;;;;;;31.60;99.90;;;;;;6161307;23;20267;-78
2022/08/12 12:14:22;;;;;;;;;;;31.90;99.90;;;;;;6136038;23;19916;-79
2022/08/12 12:16:47;;;;;;;;;;;31.90;99.90;;;;;;6161323;23;20397;-77
2022/08/12 12:19:13;;;;;;;;;;;31.20;99.90;;;;;;6159751;23;19962;-77
2022/08/12 12:21:38;;;;;;;;;;;30.90;99.90;;;;;;6160870;23;19987;-78
2022/08/12 12:24:04;;;;;;;;;;;31.10;99.90;;;;;;6186060;23;19918;-76
2022/08/12 12:26:30;;;;;;;;;;;30.80;99.90;;;;;;6160699;23;19915;-78
2022/08/12 12:28:55;;;;;;;;;;;31.00;99.90;;;;;;6186241;23;20241;-78
2022/08/12 12:31:23;;;;;;;;;;;31.10;99.90;;;;;;6160475;23;19922;-80
2022/08/12 12:33:48;;;;;;;;;;;31.30;99.90;;;;;;6160982;23;19947;-77
2022/08/12 12:36:14;;;;;;;;;;;31.00;99.90;;;;;;6160352;23;19912;-79
2022/08/12 12:38:40;;;;;;;;;;;31.20;99.90;;;;;;6136741;23;19968;-77
2022/08/12 12:41:05;;;;;;;;;;;31.70;99.90;;;;;;6185456;23;19965;-78
2022/08/12 12:43:31;;;;;;;;;;;31.60;99.90;;;;;;6160323;23;19958;-77
2022/08/12 12:45:57;;;;;;;;;;;31.80;99.90;;;;;;6160874;23;19916;-78
2022/08/12 12:48:23;;;;;;;;;;;31.50;99.90;;;;;;6159837;23;19916;-78
2022/08/12 12:53:34;;;;;;;;;;;31.40;99.90;;;;;;6185122;23;19946;-77
2022/08/12 12:56:00;;;;;;;;;;;31.80;99.90;;;;;;6183036;23;19919;-77
2022/08/12 12:58:26;;;;;;;;;;;31.30;99.90;;;;;;6135492;23;19927;-78
2022/08/12 13:00:54;;;;;;;;;;;31.90;99.90;;;;;;6186237;23;19919;-79
2022/08/12 13:03:20;;;;;;;;;;;32.30;99.90;;;;;;6184818;23;19935;-78
2022/08/12 13:05:46;;;;;;;;;;;32.60;99.90;;;;;;6136784;23;19958;-79
2022/08/12 13:08:18;;;;;;;;;;;32.00;99.90;;;;;;6185033;23;19916;-77
2022/08/12 13:10:43;;;;;;;;;;;31.50;99.90;;;;;;6185165;23;19912;-76
2022/08/12 13:13:09;;;;;;;;;;;31.10;99.90;;;;;;6160604;23;19923;-78
2022/08/12 13:15:35;;;;;;;;;;;31.20;99.90;;;;;;6161152;23;20014;-78
2022/08/12 13:18:05;;;;;;;;;;;31.10;99.90;;;;;;6185096;23;19915;-78
2022/08/12 13:20:31;;;;;;;;;;;32.20;99.90;;;;;;6136181;23;19943;-77
2022/08/12 13:22:57;;;;;;;;;;;31.30;99.90;;;;;;6160988;23;19915;-80
2022/08/12 13:25:23;;;;;;;;;;;31.70;99.90;;;;;;6185030;23;19923;-79
2022/08/12 13:27:49;;;;;;;;;;;32.10;99.90;;;;;;6186430;23;19923;-78
2022/08/12 13:30:14;;;;;;;;;;;31.50;99.90;;;;;;6185069;23;20255;-77
2022/08/12 13:32:44;;;;;;;;;;;31.30;99.90;;;;;;6185187;23;19915;-80
2022/08/12 13:35:10;;;;;;;;;;;31.10;99.90;;;;;;6161023;23;19922;-74
2022/08/12 13:37:35;;;;;;;;;;;31.40;99.90;;;;;;6161865;23;19912;-79
2022/08/12 13:40:01;;;;;;;;;;;31.30;99.90;;;;;;6186633;23;20323;-78
2022/08/12 13:42:27;;;;;;;;;;;31.70;99.90;;;;;;6161348;23;20229;-80
2022/08/12 13:44:53;;;;;;;;;;;31.60;99.90;;;;;;6183499;23;20248;-77
2022/08/12 13:47:23;;;;;;;;;;;31.60;99.90;;;;;;6159679;23;19916;-78
2022/08/12 13:50:05;;;;;;;;;;;31.90;99.90;;;;;;6183302;23;19917;-78
2022/08/12 13:52:30;;;;;;;;;;;31.40;99.90;;;;;;6136562;23;19918;-79
2022/08/12 13:54:56;;;;;;;;;;;32.00;99.90;;;;;;6135143;23;20247;-77
2022/08/12 13:57:21;;;;;;;;;;;32.10;99.90;;;;;;6158120;23;19966;-79
2022/08/12 13:59:47;;;;;;;;;;;32.20;99.90;;;;;;6182862;23;19911;-77
2022/08/12 14:02:13;;;;;;;;;;;32.20;99.90;;;;;;6156254;23;19938;-78
2022/08/12 14:04:39;;;;;;;;;;;32.40;99.90;;;;;;6157916;23;19923;-77
2022/08/12 14:07:05;;;;;;;;;;;31.80;99.90;;;;;;6134068;23;19962;-78
2022/08/12 14:10:34;;;;;;;;;;;31.30;99.90;;;;;;6158440;23;19919;-77
2022/08/12 14:12:17;;;;;;;;;;;31.70;99.90;;;;;;6161935;23;19912;-75
2022/08/12 14:14:49;;;;;;;;;;;32.70;99.90;;;;;;6158316;23;19922;-75
2022/08/12 14:17:15;;;;;;;;;;;32.70;99.90;;;;;;6182518;23;20321;-76
2022/08/12 14:20:12;;;;;;;;;;;32.60;99.90;;;;;;6158476;23;20313;-75
2022/08/12 14:22:26;;;;;;;;;;;32.50;99.90;;;;;;6182292;23;19999;-75
2022/08/12 14:24:52;;;;;;;;;;;32.30;99.90;;;;;;6183973;23;20305;-75
2022/08/12 14:27:18;;;;;;;;;;;31.50;99.90;;;;;;6133842;23;19988;-74
2022/08/12 14:29:45;;;;;;;;;;;31.90;99.90;;;;;;6135774;23;19923;-74
2022/08/12 14:32:11;;;;;;;;;;;31.90;99.90;;;;;;6158677;23;19911;-75
2022/08/12 14:34:36;;;;;;;;;;;31.70;99.90;;;;;;6183867;23;19911;-74
2022/08/12 14:37:05;;;;;;;;;;;31.50;99.90;;;;;;6160792;23;19955;-75
2022/08/12 14:39:30;;;;;;;;;;;31.60;99.90;;;;;;6161199;23;19951;-74
2022/08/12 14:41:56;;;;;;;;;;;31.10;99.90;;;;;;6185411;23;19986;-74
2022/08/12 14:44:22;;;;;;;;;;;30.80;99.90;;;;;;6160769;23;19974;-74
2022/08/12 14:46:56;;;;;;;;;;;30.40;99.90;;;;;;6185095;23;19998;-76
2022/08/12 14:49:22;;;;;;;;;;;30.40;1.00;;;;;;6161430;23;19986;-75
2022/08/12 14:51:47;;;;;;;;;;;30.00;99.90;;;;;;6160748;23;19946;-77
2022/08/12 14:54:13;;;;;;;;;;;30.00;1.00;;;;;;6160898;23;19912;-76
2022/08/12 14:56:40;;;;;;;;;;;29.90;1.00;;;;;;6185853;23;19935;-76
2022/08/12 15:01:50;;;;;;;;;;;29.60;1.00;;;;;;6186531;23;20244;-77
2022/08/12 15:04:18;;;;;;;;;;;29.70;1.00;;;;;;6185371;23;20054;-77
2022/08/12 15:06:46;;;;;;;;;;;29.80;1.00;;;;;;6186505;23;20306;-75
2022/08/12 15:09:15;;;;;;;;;;;29.70;1.00;;;;;;6159928;23;20313;-75
2022/08/12 15:11:42;;;;;;;;;;;29.70;1.00;;;;;;6186348;23;19919;-76
2022/08/12 15:14:07;;;;;;;;;;;29.60;1.00;;;;;;6186166;23;19950;-76
2022/08/12 15:16:33;;;;;;;;;;;29.60;1.00;;;;;;6161452;23;19912;-76
2022/08/12 15:18:59;;;;;;;;;;;29.80;1.00;;;;;;6186100;23;19915;-76
2022/08/12 15:21:24;;;;;;;;;;;29.80;1.00;;;;;;6183884;23;19922;-76
2022/08/12 15:23:50;;;;;;;;;;;29.70;1.00;;;;;;6161313;23;19915;-76
2022/08/12 15:26:16;;;;;;;;;;;29.70;99.90;;;;;;6185843;23;19915;-76
2022/08/12 15:28:43;;;;;;;;;;;29.80;99.90;;;;;;6185897;23;19915;-75
2022/08/12 15:31:11;;;;;;;;;;;29.60;99.90;;;;;;6185834;23;19963;-77
2022/08/12 15:33:37;;;;;;;;;;;29.50;99.90;;;;;;6185329;23;19990;-78
2022/08/12 15:36:03;;;;;;;;;;;29.60;99.90;;;;;;6185218;23;20050;-75
2022/08/12 15:38:30;;;;;;;;;;;29.60;1.00;;;;;;6160412;23;20388;-76
2022/08/12 15:40:58;;;;;;;;;;;29.40;99.90;;;;;;6185795;23;20297;-77
2022/08/12 15:43:24;;;;;;;;;;;29.50;1.00;;;;;;6185216;23;19999;-77
2022/08/12 15:45:50;;;;;;;;;;;29.40;1.00;;;;;;6161821;23;19927;-78
2022/08/12 15:48:15;;;;;;;;;;;29.30;1.00;;;;;;6184841;23;19915;-73
2022/08/12 15:50:44;;;;;;;;;;;29.40;1.00;;;;;;6161839;23;20424;-74
2022/08/12 15:53:10;;;;;;;;;;;29.30;99.90;;;;;;6135891;23;19920;-75
2022/08/12 15:55:36;;;;;;;;;;;29.30;1.00;;;;;;6186496;23;19982;-76
2022/08/12 15:58:01;;;;;;;;;;;29.30;1.00;;;;;;6185792;23;19912;-77
2022/08/12 16:00:31;;;;;;;;;;;29.30;1.00;;;;;;6185477;23;19983;-76
2022/08/12 16:02:57;;;;;;;;;;;29.30;1.00;;;;;;6161713;23;19958;-76
2022/08/12 16:05:24;;;;;;;;;;;29.20;99.90;;;;;;6184649;23;19969;-77
2022/08/12 16:07:50;;;;;;;;;;;29.20;99.90;;;;;;6186145;23;19915;-74